createdAt,value
2017-07-22T00:00:24.485Z,18.20
2017-07-22T00:02:59.673Z,18.00
2017-07-22T00:05:28.638Z,18.10
2017-07-22T00:07:57.601Z,18.00
2017-07-22T00:10:26.551Z,18.00
2017-07-22T00:12:55.540Z,17.90
2017-07-22T00:15:24.529Z,17.90
2017-07-22T00:17:53.475Z,18.00
2017-07-22T00:20:22.458Z,18.00
2017-07-22T00:22:51.437Z,18.00
2017-07-22T00:25:20.430Z,18.00
2017-07-22T00:27:49.369Z,18.00
2017-07-22T00:30:18.354Z,18.00
2017-07-22T00:32:47.333Z,18.00
2017-07-22T00:35:16.245Z,17.90
2017-07-22T00:37:45.228Z,17.90
2017-07-22T00:40:14.216Z,17.80
2017-07-22T00:42:43.208Z,17.90
2017-07-22T00:45:12.228Z,17.90
2017-07-22T00:47:41.209Z,17.90
2017-07-22T00:50:10.198Z,17.80
2017-07-22T00:52:39.301Z,17.90
2017-07-22T00:55:08.238Z,17.90
2017-07-22T00:57:37.533Z,17.90
2017-07-22T01:00:06.509Z,17.90
2017-07-22T01:02:35.449Z,17.80
2017-07-22T01:05:04.422Z,17.80
2017-07-22T01:07:33.363Z,17.80
2017-07-22T01:10:02.318Z,17.70
2017-07-22T01:12:31.341Z,17.70
2017-07-22T01:15:00.361Z,17.70
2017-07-22T01:17:29.349Z,17.70
2017-07-22T01:19:58.274Z,17.70
2017-07-22T01:22:27.419Z,17.70
2017-07-22T01:24:56.357Z,17.80
2017-07-22T01:27:25.329Z,17.80
2017-07-22T01:29:54.281Z,17.70
2017-07-22T01:32:23.312Z,17.70
2017-07-22T01:34:52.286Z,17.70
2017-07-22T01:37:21.305Z,17.70
2017-07-22T01:39:50.349Z,17.70
2017-07-22T01:42:19.286Z,17.70
2017-07-22T01:44:48.242Z,17.70
2017-07-22T01:47:17.288Z,17.70
2017-07-22T01:49:46.381Z,17.70
2017-07-22T01:52:15.373Z,17.60
2017-07-22T01:54:44.370Z,17.70
2017-07-22T01:57:13.394Z,17.60
2017-07-22T01:59:42.629Z,17.70
2017-07-22T02:02:11.653Z,17.70
2017-07-22T02:04:40.617Z,17.30
2017-07-22T02:07:09.607Z,17.30
2017-07-22T02:09:38.608Z,17.40
2017-07-22T02:12:07.611Z,17.70
2017-07-22T02:14:36.598Z,18.00
2017-07-22T02:17:05.913Z,18.20
2017-07-22T02:19:34.856Z,18.40
2017-07-22T02:22:03.785Z,18.60
2017-07-22T02:24:32.763Z,18.70
2017-07-22T02:27:02.315Z,18.70
2017-07-22T02:29:31.317Z,18.50
2017-07-22T02:32:00.311Z,18.20
2017-07-22T02:34:29.261Z,18.10
2017-07-22T02:36:58.269Z,17.90
2017-07-22T02:39:27.213Z,17.70
2017-07-22T02:41:56.202Z,17.50
2017-07-22T02:44:25.145Z,17.40
2017-07-22T02:46:54.101Z,17.30
2017-07-22T02:49:23.110Z,17.20
2017-07-22T02:51:52.094Z,17.20
2017-07-22T02:54:21.126Z,17.20
2017-07-22T02:56:50.206Z,17.10
2017-07-22T02:59:19.494Z,17.20
2017-07-22T03:01:48.761Z,17.20
2017-07-22T03:04:17.749Z,17.20
2017-07-22T03:06:46.693Z,17.20
2017-07-22T03:09:15.690Z,17.20
2017-07-22T03:11:44.625Z,17.30
2017-07-22T03:14:13.601Z,17.30
2017-07-22T03:16:42.550Z,17.40
2017-07-22T03:19:11.546Z,17.40
2017-07-22T03:21:40.532Z,17.40
2017-07-22T03:24:09.514Z,17.40
2017-07-22T03:26:38.529Z,17.40
2017-07-22T03:29:07.477Z,17.50
2017-07-22T03:31:36.428Z,17.50
2017-07-22T03:34:05.370Z,17.50
2017-07-22T03:36:34.295Z,17.50
2017-07-22T03:39:03.394Z,17.60
2017-07-22T03:41:32.337Z,17.50
2017-07-22T03:44:01.268Z,17.40
2017-07-22T03:46:30.226Z,17.40
2017-07-22T03:48:59.160Z,17.30
2017-07-22T03:51:28.096Z,17.30
2017-07-22T03:53:57.061Z,17.40
2017-07-22T03:56:26.040Z,17.40
2017-07-22T03:58:55.120Z,17.40
2017-07-22T04:01:24.093Z,17.50
2017-07-22T04:03:53.341Z,17.50
2017-07-22T04:06:22.450Z,17.60
2017-07-22T04:08:51.666Z,17.60
2017-07-22T04:11:20.656Z,17.60
2017-07-22T04:13:49.601Z,17.60
2017-07-22T04:16:18.553Z,17.60
2017-07-22T04:18:47.504Z,17.70
2017-07-22T04:21:16.672Z,17.70
2017-07-22T04:23:45.699Z,17.80
2017-07-22T04:26:14.653Z,17.80
2017-07-22T04:28:43.624Z,17.80
2017-07-22T04:31:12.592Z,17.90
2017-07-22T04:33:41.576Z,18.00
2017-07-22T04:36:10.618Z,18.00
2017-07-22T04:38:39.702Z,18.00
2017-07-22T04:41:08.630Z,18.00
2017-07-22T04:43:37.609Z,18.10
2017-07-22T04:46:06.520Z,18.10
2017-07-22T04:48:35.458Z,18.00
2017-07-22T04:51:04.425Z,18.00
2017-07-22T04:53:33.450Z,18.00
2017-07-22T04:56:02.620Z,17.90
2017-07-22T04:58:31.632Z,18.00
2017-07-22T05:01:00.618Z,18.00
2017-07-22T05:03:29.611Z,18.00
2017-07-22T05:05:58.569Z,18.00
2017-07-22T05:08:27.587Z,18.00
2017-07-22T05:10:56.516Z,18.10
2017-07-22T05:13:25.466Z,18.10
2017-07-22T05:15:54.483Z,18.00
2017-07-22T05:18:23.485Z,18.00
2017-07-22T05:20:52.493Z,18.00
2017-07-22T05:23:21.495Z,18.10
2017-07-22T05:25:50.470Z,18.10
2017-07-22T05:28:19.515Z,18.00
2017-07-22T05:30:48.515Z,18.00
2017-07-22T05:33:17.512Z,17.90
2017-07-22T05:35:46.828Z,17.90
2017-07-22T05:38:15.789Z,17.90
2017-07-22T05:40:44.717Z,17.70
2017-07-22T05:43:13.773Z,17.70
2017-07-22T05:45:42.817Z,17.60
2017-07-22T05:48:11.758Z,17.60
2017-07-22T05:50:40.909Z,17.70
2017-07-22T05:53:09.910Z,17.70
2017-07-22T05:55:38.922Z,17.70
2017-07-22T05:58:07.902Z,17.70
2017-07-22T06:00:36.951Z,17.70
2017-07-22T06:03:05.903Z,17.70
2017-07-22T06:05:34.850Z,17.80
2017-07-22T06:08:03.882Z,17.80
2017-07-22T06:10:32.833Z,17.80
2017-07-22T06:13:01.762Z,17.80
2017-07-22T06:15:30.739Z,17.90
2017-07-22T06:17:59.734Z,18.00
2017-07-22T06:20:28.720Z,18.00
2017-07-22T06:22:57.976Z,18.00
2017-07-22T06:25:26.922Z,18.00
2017-07-22T06:27:55.866Z,18.10
2017-07-22T06:30:24.866Z,18.10
2017-07-22T06:32:53.826Z,18.10
2017-07-22T06:35:22.822Z,18.10
2017-07-22T06:37:51.839Z,18.10
2017-07-22T06:41:40.157Z,18.10
2017-07-22T06:44:09.126Z,18.10
2017-07-22T06:46:38.101Z,18.10
2017-07-22T06:49:07.037Z,17.80
2017-07-22T06:51:36.083Z,17.70
2017-07-22T06:54:05.044Z,17.50
2017-07-22T06:56:33.989Z,17.60
2017-07-22T06:59:02.989Z,17.70
2017-07-22T07:01:31.952Z,17.90
2017-07-22T07:04:00.957Z,18.00
2017-07-22T07:06:29.953Z,18.10
2017-07-22T07:08:59.369Z,18.20
2017-07-22T07:11:28.339Z,18.20
2017-07-22T07:13:57.399Z,18.10
2017-07-22T07:16:26.376Z,18.10
2017-07-22T07:18:55.311Z,18.20
2017-07-22T07:21:24.320Z,18.10
2017-07-22T07:23:53.300Z,18.10
2017-07-22T07:26:22.301Z,18.00
2017-07-22T07:28:51.322Z,18.10
2017-07-22T07:31:20.289Z,18.10
2017-07-22T07:33:49.274Z,18.20
2017-07-22T07:36:18.243Z,18.20
2017-07-22T07:38:47.212Z,18.20
2017-07-22T07:41:16.170Z,18.20
2017-07-22T07:43:45.166Z,18.20
2017-07-22T07:46:14.177Z,18.40
2017-07-22T07:48:43.240Z,18.50
2017-07-22T07:51:12.201Z,18.60
2017-07-22T07:53:41.207Z,18.80
2017-07-22T07:56:10.230Z,19.10
2017-07-22T07:58:39.267Z,19.20
2017-07-22T08:01:08.235Z,19.40
2017-07-22T08:03:37.254Z,19.50
2017-07-22T08:06:06.247Z,19.40
2017-07-22T08:08:35.347Z,19.60
2017-07-22T08:11:04.393Z,19.90
2017-07-22T08:13:33.408Z,20.20
2017-07-22T08:16:02.390Z,20.90
2017-07-22T08:18:31.400Z,21.70
2017-07-22T08:21:00.544Z,21.80
2017-07-22T08:23:29.553Z,21.60
2017-07-22T08:25:58.535Z,21.60
2017-07-22T08:28:27.538Z,21.70
2017-07-22T08:30:56.575Z,22.10
2017-07-22T08:33:25.624Z,22.70
2017-07-22T08:35:54.657Z,23.70
2017-07-22T08:38:23.992Z,24.40
2017-07-22T08:40:53.076Z,24.00
2017-07-22T08:43:22.086Z,24.00
2017-07-22T08:45:51.219Z,24.80
2017-07-22T08:48:20.920Z,25.60
2017-07-22T08:50:49.958Z,25.90
2017-07-22T08:53:18.937Z,25.30
2017-07-22T08:55:47.933Z,25.00
2017-07-22T08:58:16.917Z,24.70
2017-07-22T09:00:45.951Z,25.60
2017-07-22T09:03:14.929Z,27.10
2017-07-22T09:05:43.994Z,26.90
2017-07-22T09:08:13.122Z,26.80
2017-07-22T09:10:42.134Z,26.40
2017-07-22T09:13:11.123Z,27.50
2017-07-22T09:15:40.116Z,29.30
2017-07-22T09:18:09.190Z,29.10
2017-07-22T09:20:39.116Z,29.30
2017-07-22T09:23:08.146Z,29.80
2017-07-22T09:25:37.283Z,29.00
2017-07-22T09:28:06.378Z,29.10
2017-07-22T09:30:35.361Z,28.50
2017-07-22T09:33:04.474Z,28.30
2017-07-22T09:35:33.480Z,26.50
2017-07-22T09:38:02.595Z,26.30
2017-07-22T09:40:31.574Z,26.80
2017-07-22T09:43:00.601Z,26.80
2017-07-22T09:45:29.629Z,25.90
2017-07-22T09:47:58.618Z,25.20
2017-07-22T09:50:27.623Z,24.90
2017-07-22T09:52:56.592Z,24.70
2017-07-22T09:55:25.659Z,24.60
2017-07-22T09:57:54.652Z,24.70
2017-07-22T10:00:23.813Z,24.80
2017-07-22T10:02:52.873Z,24.80
2017-07-22T10:05:22.001Z,24.90
2017-07-22T10:07:51.359Z,24.60
2017-07-22T10:10:20.353Z,25.80
2017-07-22T10:12:49.443Z,27.90
2017-07-22T10:15:18.474Z,30.00
2017-07-22T10:17:47.666Z,30.40
2017-07-22T10:20:16.720Z,32.10
2017-07-22T10:22:45.715Z,32.70
2017-07-22T10:25:14.693Z,33.20
2017-07-22T10:27:43.800Z,33.30
2017-07-22T10:30:12.782Z,34.20
2017-07-22T10:32:41.812Z,34.40
2017-07-22T10:35:11.236Z,34.20
2017-07-22T10:37:40.430Z,34.90
2017-07-22T10:40:09.385Z,35.30
2017-07-22T10:42:38.502Z,35.90
2017-07-22T10:46:26.962Z,35.70
2017-07-22T10:48:55.979Z,34.30
2017-07-22T10:51:24.983Z,34.40
2017-07-22T10:53:54.005Z,34.10
2017-07-22T10:56:23.411Z,35.20
2017-07-22T10:58:53.125Z,35.60
2017-07-22T11:01:22.793Z,35.30
2017-07-22T11:03:52.432Z,35.60
2017-07-22T11:06:21.406Z,36.10
2017-07-22T11:08:50.532Z,36.20
2017-07-22T11:11:19.524Z,35.10
2017-07-22T11:13:48.508Z,35.00
2017-07-22T11:16:18.309Z,35.10
2017-07-22T11:18:47.293Z,35.30
2017-07-22T11:21:17.222Z,35.20
2017-07-22T11:23:47.790Z,35.90
2017-07-22T11:26:16.920Z,36.10
2017-07-22T11:28:46.383Z,34.80
2017-07-22T11:31:15.358Z,35.40
2017-07-22T11:33:44.397Z,33.80
2017-07-22T11:36:13.467Z,33.50
2017-07-22T11:38:42.473Z,32.80
2017-07-22T11:41:11.632Z,31.50
2017-07-22T11:44:11.279Z,31.10
2017-07-22T11:46:40.297Z,30.00
2017-07-22T11:49:09.277Z,30.90
2017-07-22T11:51:38.847Z,31.40
2017-07-22T11:54:07.924Z,31.60
2017-07-22T11:56:37.476Z,31.30
2017-07-22T11:59:06.992Z,30.40
2017-07-22T12:01:36.023Z,29.80
2017-07-22T12:04:37.178Z,29.50
2017-07-22T12:07:06.198Z,29.20
2017-07-22T12:09:35.590Z,28.20
2017-07-22T12:12:04.605Z,28.30
2017-07-22T12:14:33.842Z,28.60
2017-07-22T12:17:02.864Z,28.70
2017-07-22T12:19:33.199Z,28.40
2017-07-22T12:22:02.258Z,28.40
2017-07-22T12:24:31.551Z,27.80
2017-07-22T12:27:00.548Z,27.90
2017-07-22T12:29:30.348Z,28.10
2017-07-22T12:32:00.201Z,28.20
2017-07-22T12:34:34.635Z,27.80
2017-07-22T12:37:03.670Z,27.50
2017-07-22T12:39:32.679Z,27.60
2017-07-22T12:42:02.489Z,27.90
2017-07-22T12:44:33.406Z,28.00
2017-07-22T12:47:04.000Z,28.20
2017-07-22T12:49:34.423Z,28.50
2017-07-22T12:52:04.404Z,28.90
2017-07-22T12:54:33.494Z,28.70
2017-07-22T12:57:06.184Z,28.20
2017-07-22T12:59:36.163Z,27.90
2017-07-22T13:02:05.184Z,27.70
2017-07-22T13:04:34.326Z,27.80
2017-07-22T13:07:04.006Z,27.80
2017-07-22T13:09:33.488Z,27.80
2017-07-22T13:12:03.545Z,28.20
2017-07-22T13:14:34.039Z,28.30
2017-07-22T13:17:03.155Z,28.00
2017-07-22T13:19:32.843Z,28.20
2017-07-22T13:22:31.982Z,28.20
2017-07-22T13:25:01.404Z,28.30
2017-07-22T13:27:30.426Z,28.30
2017-07-22T13:30:00.023Z,28.50
2017-07-22T13:32:29.027Z,28.70
2017-07-22T13:34:58.657Z,28.40
2017-07-22T13:37:28.370Z,28.80
2017-07-22T13:39:57.352Z,28.50
2017-07-22T13:42:27.112Z,28.20
2017-07-22T13:44:56.082Z,28.10
2017-07-22T13:47:25.310Z,27.70
2017-07-22T13:49:54.400Z,27.40
2017-07-22T13:52:24.226Z,27.50
2017-07-22T13:54:54.329Z,27.50
2017-07-22T13:57:24.837Z,27.60
2017-07-22T14:00:24.454Z,27.60
2017-07-22T14:02:54.031Z,27.30
2017-07-22T14:05:23.640Z,27.40
2017-07-22T14:07:52.642Z,27.40
2017-07-22T14:10:21.703Z,27.20
2017-07-22T14:12:51.301Z,27.00
2017-07-22T14:15:20.302Z,26.80
2017-07-22T14:17:49.297Z,26.70
2017-07-22T14:20:18.306Z,26.80
2017-07-22T14:22:48.575Z,26.80
2017-07-22T14:25:17.583Z,27.10
2017-07-22T14:27:47.416Z,27.10
2017-07-22T14:30:16.456Z,27.00
2017-07-22T14:32:45.446Z,27.10
2017-07-22T14:35:14.874Z,27.20
2017-07-22T14:37:44.278Z,27.10
2017-07-22T14:40:14.082Z,27.00
2017-07-22T14:42:43.065Z,26.90
2017-07-22T14:45:12.134Z,26.40
2017-07-22T14:47:43.293Z,26.20
2017-07-22T14:50:12.952Z,26.20
2017-07-22T14:52:42.033Z,26.10
2017-07-22T14:55:11.643Z,25.70
2017-07-22T14:57:40.669Z,25.70
2017-07-22T15:00:10.430Z,25.60
2017-07-22T15:02:39.462Z,25.50
2017-07-22T15:05:09.146Z,25.40
2017-07-22T15:07:38.894Z,25.60
2017-07-22T15:10:08.603Z,25.80
2017-07-22T15:12:38.470Z,25.90
2017-07-22T15:15:07.488Z,26.30
2017-07-22T15:17:36.718Z,26.70
2017-07-22T15:20:05.764Z,26.90
2017-07-22T15:22:35.002Z,27.10
2017-07-22T15:25:05.148Z,27.20
2017-07-22T15:27:35.766Z,26.80
2017-07-22T15:30:05.278Z,26.80
2017-07-22T15:32:34.330Z,26.80
2017-07-22T15:35:06.969Z,26.80
2017-07-22T15:37:36.730Z,26.60
2017-07-22T15:40:06.423Z,26.60
2017-07-22T15:42:35.493Z,26.30
2017-07-22T15:45:05.274Z,25.90
2017-07-22T15:47:37.169Z,25.70
2017-07-22T15:50:07.640Z,25.50
2017-07-22T15:52:38.341Z,25.20
2017-07-22T15:55:07.673Z,25.00
2017-07-22T15:57:36.826Z,24.90
2017-07-22T16:00:06.997Z,24.90
2017-07-22T16:02:37.350Z,24.80
2017-07-22T16:05:08.180Z,24.60
2017-07-22T16:07:38.066Z,24.60
2017-07-22T16:10:07.914Z,24.60
2017-07-22T16:12:37.761Z,24.60
2017-07-22T16:15:06.737Z,24.50
2017-07-22T16:17:35.740Z,24.50
2017-07-22T16:20:05.446Z,24.50
2017-07-22T16:22:34.566Z,24.70
2017-07-22T16:25:03.591Z,24.60
2017-07-22T16:27:33.399Z,24.60
2017-07-22T16:30:04.356Z,24.50
2017-07-22T16:32:34.133Z,24.50
2017-07-22T16:35:04.284Z,24.60
2017-07-22T16:37:34.270Z,24.50
2017-07-22T16:40:04.180Z,24.40
2017-07-22T16:42:34.013Z,24.50
2017-07-22T16:45:03.001Z,24.40
2017-07-22T16:47:32.749Z,24.40
2017-07-22T16:50:02.622Z,24.40
2017-07-22T16:52:33.306Z,24.40
2017-07-22T16:55:03.114Z,24.20
2017-07-22T16:57:32.810Z,24.20
2017-07-22T17:00:03.686Z,24.20
2017-07-22T17:02:34.218Z,24.00
2017-07-22T17:05:03.779Z,24.00
2017-07-22T17:07:32.759Z,24.10
2017-07-22T17:10:02.666Z,24.10
2017-07-22T17:12:32.448Z,24.10
2017-07-22T17:15:01.511Z,24.00
2017-07-22T17:17:31.394Z,23.90
2017-07-22T17:20:00.374Z,23.80
2017-07-22T17:22:29.397Z,23.70
2017-07-22T17:24:58.507Z,23.50
2017-07-22T17:27:29.017Z,23.50
2017-07-22T17:30:00.941Z,23.60
2017-07-22T17:32:29.997Z,23.60
2017-07-22T17:34:59.830Z,23.60
2017-07-22T17:37:30.673Z,23.60
2017-07-22T17:40:00.773Z,23.60
2017-07-22T17:42:29.829Z,23.60
2017-07-22T17:45:00.010Z,23.70
2017-07-22T17:47:29.077Z,23.60
2017-07-22T17:49:58.184Z,23.60
2017-07-22T17:52:27.809Z,23.70
2017-07-22T17:54:58.799Z,23.60
2017-07-22T17:57:29.122Z,23.50
2017-07-22T18:00:00.333Z,23.50
2017-07-22T18:02:29.328Z,23.40
2017-07-22T18:04:58.433Z,23.30
2017-07-22T18:07:27.518Z,23.20
2017-07-22T18:09:58.205Z,23.20
2017-07-22T18:12:29.141Z,23.30
2017-07-22T18:15:00.702Z,23.40
2017-07-22T18:17:30.575Z,23.30
2017-07-22T18:19:59.896Z,23.20
2017-07-22T18:22:28.907Z,23.40
2017-07-22T18:24:57.955Z,23.30
2017-07-22T18:27:27.853Z,23.30
2017-07-22T18:29:59.368Z,23.30
2017-07-22T18:32:28.417Z,23.20
2017-07-22T18:34:57.498Z,23.10
2017-07-22T18:37:26.569Z,22.90
2017-07-22T18:39:55.632Z,22.70
2017-07-22T18:42:24.659Z,22.60
2017-07-22T18:44:54.504Z,22.50
2017-07-22T18:47:23.539Z,22.40
2017-07-22T18:49:54.234Z,22.30
2017-07-22T18:52:23.233Z,22.20
2017-07-22T18:54:52.226Z,22.30
2017-07-22T18:57:22.149Z,22.30
2017-07-22T18:59:51.162Z,22.20
2017-07-22T19:02:23.111Z,22.10
2017-07-22T19:04:53.007Z,22.10
2017-07-22T19:07:22.014Z,22.10
2017-07-22T19:09:51.905Z,22.10
2017-07-22T19:12:21.218Z,22.10
2017-07-22T19:15:52.534Z,21.90
2017-07-22T19:18:23.410Z,21.70
2017-07-22T19:20:52.420Z,21.50
2017-07-22T19:23:24.057Z,21.50
2017-07-22T19:25:54.809Z,21.40
2017-07-22T19:28:23.980Z,21.20
2017-07-22T19:30:52.975Z,21.10
2017-07-22T19:33:22.911Z,21.00
2017-07-22T19:35:53.086Z,21.00
2017-07-22T19:38:24.833Z,20.90
2017-07-22T19:40:53.978Z,21.00
2017-07-22T19:43:25.179Z,21.00
2017-07-22T19:45:54.933Z,20.90
2017-07-22T19:48:25.714Z,20.90
2017-07-22T19:50:56.526Z,20.80
2017-07-22T19:53:26.435Z,20.80
2017-07-22T19:56:00.030Z,20.70
2017-07-22T19:58:30.057Z,20.70
2017-07-22T20:00:59.041Z,20.70
2017-07-22T20:03:28.095Z,20.60
2017-07-22T20:05:59.557Z,20.60
2017-07-22T20:09:31.172Z,20.50
2017-07-22T20:12:05.483Z,20.50
2017-07-22T20:14:36.837Z,20.40
2017-07-22T20:17:05.930Z,20.40
2017-07-22T20:19:36.818Z,20.30
2017-07-22T20:22:05.825Z,20.30
2017-07-22T20:24:34.886Z,20.40
2017-07-22T20:27:03.902Z,20.30
2017-07-22T20:29:33.008Z,20.30
2017-07-22T20:32:06.873Z,20.20
2017-07-22T20:34:35.950Z,20.30
2017-07-22T20:37:05.901Z,20.30
2017-07-22T20:39:34.881Z,20.30
2017-07-22T20:42:03.939Z,20.30
2017-07-22T20:44:36.453Z,20.30
2017-07-22T20:47:05.447Z,20.20
2017-07-22T20:49:36.199Z,20.20
2017-07-22T20:52:06.063Z,20.20
2017-07-22T20:54:35.052Z,20.20
2017-07-22T20:57:04.985Z,20.20
2017-07-22T20:59:34.933Z,20.20
2017-07-22T21:02:05.758Z,20.20
2017-07-22T21:04:37.492Z,20.10
2017-07-22T21:07:06.561Z,20.10
2017-07-22T21:09:36.449Z,20.10
2017-07-22T21:12:10.202Z,20.10
2017-07-22T21:14:39.280Z,20.00
2017-07-22T21:17:08.365Z,20.10
2017-07-22T21:19:39.466Z,20.10
2017-07-22T21:22:09.418Z,20.10
2017-07-22T21:24:44.115Z,20.00
2017-07-22T21:27:15.125Z,19.90
2017-07-22T21:30:14.522Z,19.70
2017-07-22T21:32:44.390Z,19.70
2017-07-22T21:35:16.953Z,19.70
2017-07-22T21:37:46.682Z,19.70
2017-07-22T21:40:15.651Z,19.80
2017-07-22T21:42:46.457Z,19.90
2017-07-22T21:45:15.521Z,20.00
2017-07-22T21:47:46.188Z,20.00
2017-07-22T21:50:15.992Z,19.80
2017-07-22T21:52:47.303Z,19.80
2017-07-22T21:55:16.269Z,19.80
2017-07-22T21:57:46.115Z,19.90
2017-07-22T22:00:15.121Z,19.80
2017-07-22T22:02:47.385Z,19.80
2017-07-22T22:05:16.386Z,19.70
2017-07-22T22:07:46.233Z,19.60
2017-07-22T22:10:15.234Z,19.50
2017-07-22T22:15:19.738Z,19.40
2017-07-22T22:17:51.059Z,19.30
2017-07-22T22:20:20.218Z,19.20
2017-07-22T22:22:49.969Z,19.10
2017-07-22T22:25:20.418Z,19.10
2017-07-22T22:27:50.857Z,19.00
2017-07-22T22:30:19.870Z,19.00
2017-07-22T22:32:49.728Z,19.00
2017-07-22T22:35:19.029Z,19.00
2017-07-22T22:37:48.397Z,18.80
2017-07-22T22:41:38.000Z,18.80
2017-07-22T22:44:07.425Z,18.70
2017-07-22T22:46:36.664Z,18.60
2017-07-22T22:49:06.062Z,18.60
2017-07-22T22:51:35.233Z,18.70
2017-07-22T22:54:04.809Z,18.90
2017-07-22T22:56:33.989Z,19.00
2017-07-22T23:12:26.078Z,19.10
2017-07-22T23:15:57.675Z,18.50
2017-07-22T23:18:26.682Z,18.50
2017-07-22T23:20:55.760Z,18.50
2017-07-22T23:23:24.947Z,18.50
2017-07-22T23:25:53.941Z,18.50
2017-07-22T23:28:23.210Z,18.50
2017-07-22T23:30:52.169Z,18.50
2017-07-22T23:33:21.798Z,18.50
2017-07-22T23:35:50.768Z,18.50
2017-07-22T23:38:19.729Z,18.40
2017-07-22T23:40:48.692Z,18.40
2017-07-22T23:43:17.642Z,18.40
2017-07-22T23:45:46.608Z,18.50
2017-07-22T23:48:15.614Z,18.60
2017-07-22T23:50:44.585Z,18.60
2017-07-22T23:53:13.561Z,18.60
2017-07-22T23:55:42.511Z,18.60
2017-07-22T23:58:11.495Z,18.70
